createdAt,value
2017-08-21T00:00:03.874Z,1016.80
2017-08-21T00:01:04.286Z,1016.77
2017-08-21T00:02:04.722Z,1016.76
2017-08-21T00:03:57.932Z,1016.79
2017-08-21T00:04:58.375Z,1016.78
2017-08-21T00:05:58.801Z,1016.74
2017-08-21T00:06:59.240Z,1016.80
2017-08-21T00:07:59.669Z,1016.75
2017-08-21T00:09:00.100Z,1016.75
2017-08-21T00:10:00.540Z,1016.78
2017-08-21T00:11:54.740Z,1016.77
2017-08-21T00:12:55.184Z,1016.75
2017-08-21T00:13:55.622Z,1016.77
2017-08-21T00:15:48.820Z,1016.76
2017-08-21T00:16:49.263Z,1016.80
2017-08-21T00:17:49.694Z,1016.82
2017-08-21T00:18:50.131Z,1016.85
2017-08-21T00:19:50.565Z,1016.82
2017-08-21T00:21:43.764Z,1016.84
2017-08-21T00:22:44.204Z,1016.89
2017-08-21T00:23:44.640Z,1016.88
2017-08-21T00:24:45.074Z,1016.92
2017-08-21T00:25:45.506Z,1016.92
2017-08-21T00:26:45.943Z,1016.86
2017-08-21T00:27:46.374Z,1016.88
2017-08-21T00:29:39.577Z,1016.88
2017-08-21T00:31:32.814Z,1016.84
2017-08-21T00:32:33.242Z,1016.89
2017-08-21T00:33:33.678Z,1016.87
2017-08-21T00:34:34.105Z,1016.87
2017-08-21T00:36:27.311Z,1016.92
2017-08-21T00:37:27.746Z,1016.87
2017-08-21T00:39:20.976Z,1016.90
2017-08-21T00:40:21.411Z,1016.86
2017-08-21T00:41:21.834Z,1016.86
2017-08-21T00:43:15.055Z,1016.88
2017-08-21T00:44:15.484Z,1016.94
2017-08-21T00:45:15.913Z,1016.92
2017-08-21T00:46:16.349Z,1016.95
2017-08-21T00:48:10.099Z,1016.96
2017-08-21T00:50:03.288Z,1016.89
2017-08-21T00:51:03.713Z,1016.92
2017-08-21T00:52:04.159Z,1016.96
2017-08-21T00:53:04.585Z,1016.92
2017-08-21T00:54:57.791Z,1016.93
2017-08-21T00:55:58.235Z,1016.92
2017-08-21T00:56:58.675Z,1016.93
2017-08-21T00:58:52.881Z,1016.93
2017-08-21T00:59:53.304Z,1016.93
2017-08-21T01:00:53.740Z,1016.92
2017-08-21T01:01:54.179Z,1016.96
2017-08-21T01:02:54.600Z,1016.91
2017-08-21T01:03:55.033Z,1016.93
2017-08-21T01:04:55.474Z,1016.92
2017-08-21T01:06:48.682Z,1016.89
2017-08-21T01:07:49.128Z,1016.95
2017-08-21T01:08:49.556Z,1016.90
2017-08-21T01:09:49.985Z,1016.88
2017-08-21T01:10:50.425Z,1016.89
2017-08-21T01:12:43.659Z,1016.92
2017-08-21T01:13:44.086Z,1016.90
2017-08-21T01:14:44.519Z,1016.88
2017-08-21T01:16:37.725Z,1016.87
2017-08-21T01:18:30.941Z,1016.93
2017-08-21T01:20:24.153Z,1016.91
2017-08-21T01:21:24.593Z,1016.87
2017-08-21T01:22:25.030Z,1016.93
2017-08-21T01:23:25.458Z,1016.85
2017-08-21T01:24:25.890Z,1016.88
2017-08-21T01:26:19.091Z,1016.87
2017-08-21T01:28:13.293Z,1016.89
2017-08-21T01:29:13.730Z,1016.88
2017-08-21T01:30:14.162Z,1016.91
2017-08-21T01:31:14.597Z,1016.86
2017-08-21T01:32:15.029Z,1016.90
2017-08-21T01:34:08.239Z,1016.91
2017-08-21T01:35:08.681Z,1016.87
2017-08-21T01:36:09.113Z,1016.85
2017-08-21T01:37:09.547Z,1016.87
2017-08-21T01:38:09.977Z,1016.87
2017-08-21T01:39:10.412Z,1016.81
2017-08-21T01:40:10.842Z,1016.87
2017-08-21T01:42:04.044Z,1016.86
2017-08-21T01:43:57.264Z,1016.87
2017-08-21T01:44:57.772Z,1016.82
2017-08-21T01:45:58.150Z,1016.84
2017-08-21T01:46:58.566Z,1016.82
2017-08-21T01:47:58.993Z,1016.80
2017-08-21T01:49:52.203Z,1016.77
2017-08-21T01:50:52.723Z,1016.74
2017-08-21T01:51:53.072Z,1016.75
2017-08-21T01:52:53.516Z,1016.75
2017-08-21T01:53:53.941Z,1016.73
2017-08-21T01:55:47.159Z,1016.75
2017-08-21T01:56:47.587Z,1016.69
2017-08-21T01:57:48.021Z,1016.73
2017-08-21T01:58:48.449Z,1016.74
2017-08-21T01:59:48.881Z,1016.73
2017-08-21T02:00:49.312Z,1016.71
2017-08-21T02:01:49.747Z,1016.76
2017-08-21T02:02:50.176Z,1016.74
2017-08-21T02:03:50.608Z,1016.74
2017-08-21T02:05:43.835Z,1016.70
2017-08-21T02:06:44.279Z,1016.69
2017-08-21T02:07:44.692Z,1016.66
2017-08-21T02:08:45.129Z,1016.65
2017-08-21T02:10:38.341Z,1016.69
2017-08-21T02:11:38.785Z,1016.61
2017-08-21T02:12:39.218Z,1016.65
2017-08-21T02:13:39.650Z,1016.67
2017-08-21T02:15:33.841Z,1016.68
2017-08-21T02:16:34.295Z,1016.65
2017-08-21T02:17:34.723Z,1016.68
2017-08-21T02:19:27.930Z,1016.61
2017-08-21T02:20:28.382Z,1016.66
2017-08-21T02:21:28.807Z,1016.68
2017-08-21T02:23:22.016Z,1016.69
2017-08-21T02:24:22.467Z,1016.63
2017-08-21T02:25:22.893Z,1016.65
2017-08-21T02:26:23.322Z,1016.57
2017-08-21T02:27:23.760Z,1016.64
2017-08-21T02:29:16.983Z,1016.63
2017-08-21T02:30:17.426Z,1016.64
2017-08-21T02:32:10.652Z,1016.63
2017-08-21T02:33:11.076Z,1016.62
2017-08-21T02:34:11.509Z,1016.66
2017-08-21T02:35:11.945Z,1016.67
2017-08-21T02:36:12.372Z,1016.63
2017-08-21T02:38:05.581Z,1016.66
2017-08-21T02:39:06.021Z,1016.76
2017-08-21T02:40:06.452Z,1016.67
2017-08-21T02:41:06.892Z,1016.75
2017-08-21T02:43:00.109Z,1016.68
2017-08-21T02:44:00.544Z,1016.74
2017-08-21T02:45:00.975Z,1016.68
2017-08-21T02:46:01.413Z,1016.69
2017-08-21T02:47:55.601Z,1016.70
2017-08-21T02:48:56.035Z,1016.73
2017-08-21T02:49:56.471Z,1016.75
2017-08-21T02:50:56.906Z,1016.75
2017-08-21T02:51:57.339Z,1016.74
2017-08-21T02:53:50.545Z,1016.75
2017-08-21T02:54:50.988Z,1016.75
2017-08-21T02:55:51.422Z,1016.73
2017-08-21T02:56:51.850Z,1016.70
2017-08-21T02:57:52.284Z,1016.71
2017-08-21T02:58:52.719Z,1016.69
2017-08-21T03:00:45.925Z,1016.75
2017-08-21T03:01:46.369Z,1016.71
2017-08-21T03:02:46.799Z,1016.77
2017-08-21T03:03:47.229Z,1016.72
2017-08-21T03:04:47.662Z,1016.80
2017-08-21T03:05:48.094Z,1016.74
2017-08-21T03:06:48.530Z,1016.77
2017-08-21T03:08:41.740Z,1016.79
2017-08-21T03:10:34.944Z,1016.77
2017-08-21T03:11:35.383Z,1016.84
2017-08-21T03:12:35.818Z,1016.84
2017-08-21T03:13:36.249Z,1016.80
2017-08-21T03:14:36.678Z,1016.83
2017-08-21T03:16:29.893Z,1016.75
2017-08-21T03:17:30.331Z,1016.78
2017-08-21T03:18:30.769Z,1016.80
2017-08-21T03:19:31.200Z,1016.80
2017-08-21T03:20:31.633Z,1016.74
2017-08-21T03:21:32.068Z,1016.71
2017-08-21T03:22:32.496Z,1016.72
2017-08-21T03:23:32.937Z,1016.74
2017-08-21T03:25:26.138Z,1016.72
2017-08-21T03:27:19.357Z,1016.67
2017-08-21T03:28:19.789Z,1016.67
2017-08-21T03:29:20.225Z,1016.64
2017-08-21T03:30:20.661Z,1016.66
2017-08-21T03:32:13.868Z,1016.69
2017-08-21T03:33:14.317Z,1016.65
2017-08-21T03:34:14.747Z,1016.70
2017-08-21T03:36:07.958Z,1016.65
2017-08-21T03:37:08.399Z,1016.66
2017-08-21T03:38:08.833Z,1016.62
2017-08-21T03:39:09.262Z,1016.66
2017-08-21T03:40:09.692Z,1016.70
2017-08-21T03:41:10.134Z,1016.65
2017-08-21T03:42:10.560Z,1016.71
2017-08-21T03:44:03.775Z,1016.70
2017-08-21T03:45:04.218Z,1016.70
2017-08-21T03:46:04.653Z,1016.73
2017-08-21T03:47:57.867Z,1016.71
2017-08-21T03:48:58.312Z,1016.69
2017-08-21T03:49:58.733Z,1016.72
2017-08-21T03:50:59.162Z,1016.70
2017-08-21T03:52:52.369Z,1016.74
2017-08-21T03:54:45.582Z,1016.74
2017-08-21T03:55:46.030Z,1016.67
2017-08-21T03:56:46.458Z,1016.66
2017-08-21T03:57:46.897Z,1016.65
2017-08-21T03:59:40.106Z,1016.63
2017-08-21T04:00:40.538Z,1016.68
2017-08-21T04:01:40.973Z,1016.69
2017-08-21T04:02:41.408Z,1016.68
2017-08-21T04:03:41.836Z,1016.65
2017-08-21T04:05:35.043Z,1016.64
2017-08-21T04:06:35.486Z,1016.69
2017-08-21T04:07:35.916Z,1016.69
2017-08-21T04:08:36.347Z,1016.76
2017-08-21T04:09:36.784Z,1016.73
2017-08-21T04:10:37.217Z,1016.72
2017-08-21T04:11:37.649Z,1016.69
2017-08-21T04:13:30.855Z,1016.72
2017-08-21T04:14:31.302Z,1016.77
2017-08-21T04:15:31.732Z,1016.71
2017-08-21T04:16:32.166Z,1016.74
2017-08-21T04:17:32.599Z,1016.72
2017-08-21T04:19:25.806Z,1016.77
2017-08-21T04:20:26.242Z,1016.75
2017-08-21T04:21:26.702Z,1016.77
2017-08-21T04:22:27.112Z,1016.74
2017-08-21T04:23:27.549Z,1016.74
2017-08-21T04:25:20.768Z,1016.76
2017-08-21T04:26:21.190Z,1016.81
2017-08-21T04:27:21.624Z,1016.80
2017-08-21T04:28:22.050Z,1016.75
2017-08-21T04:30:15.282Z,1016.81
2017-08-21T04:31:15.711Z,1016.85
2017-08-21T04:32:16.145Z,1016.85
2017-08-21T04:34:10.333Z,1016.83
2017-08-21T04:35:10.770Z,1016.85
2017-08-21T04:36:11.210Z,1016.83
2017-08-21T04:37:11.641Z,1016.88
2017-08-21T04:38:12.073Z,1016.86
2017-08-21T04:39:12.503Z,1016.87
2017-08-21T04:41:05.727Z,1016.88
2017-08-21T04:42:06.161Z,1016.86
2017-08-21T04:43:06.590Z,1016.89
2017-08-21T04:44:07.031Z,1016.90
2017-08-21T04:46:01.219Z,1016.87
2017-08-21T04:47:54.428Z,1016.89
2017-08-21T04:49:47.713Z,1016.92
2017-08-21T04:50:48.148Z,1016.85
2017-08-21T04:51:48.578Z,1016.87
2017-08-21T04:52:49.017Z,1016.89
2017-08-21T04:53:49.451Z,1016.87
2017-08-21T04:54:49.882Z,1016.92
2017-08-21T04:55:50.317Z,1016.92
2017-08-21T04:56:50.752Z,1016.92
2017-08-21T04:57:51.182Z,1016.98
2017-08-21T04:58:51.615Z,1016.89
2017-08-21T04:59:52.049Z,1016.91
2017-08-21T05:00:52.475Z,1016.94
2017-08-21T05:01:52.921Z,1016.93
2017-08-21T05:03:46.114Z,1016.99
2017-08-21T05:05:39.342Z,1016.95
2017-08-21T05:06:39.773Z,1016.93
2017-08-21T05:07:40.204Z,1016.95
2017-08-21T05:08:40.633Z,1016.92
2017-08-21T05:09:41.066Z,1016.89
2017-08-21T05:10:41.501Z,1016.92
2017-08-21T05:11:41.930Z,1016.87
2017-08-21T05:12:42.367Z,1016.89
2017-08-21T05:13:42.798Z,1016.86
2017-08-21T05:15:36.002Z,1016.86
2017-08-21T05:16:36.445Z,1016.89
2017-08-21T05:17:36.900Z,1016.88
2017-08-21T05:18:37.314Z,1016.91
2017-08-21T05:20:30.525Z,1016.87
2017-08-21T05:21:30.966Z,1016.87
2017-08-21T05:22:31.396Z,1016.88
2017-08-21T05:23:31.826Z,1016.89
2017-08-21T05:24:32.260Z,1016.91
2017-08-21T05:25:32.694Z,1016.89
2017-08-21T05:26:33.129Z,1016.94
2017-08-21T05:27:33.563Z,1016.93
2017-08-21T05:28:33.993Z,1016.96
2017-08-21T05:29:34.432Z,1016.98
2017-08-21T05:30:34.864Z,1016.95
2017-08-21T05:31:35.299Z,1016.93
2017-08-21T05:32:35.731Z,1016.96
2017-08-21T05:33:36.161Z,1016.98
2017-08-21T05:35:29.420Z,1016.89
2017-08-21T05:36:29.824Z,1016.96
2017-08-21T05:37:30.260Z,1017.02
2017-08-21T05:39:23.518Z,1017.01
2017-08-21T05:40:23.923Z,1017.01
2017-08-21T05:41:24.355Z,1016.98
2017-08-21T05:42:24.782Z,1017.05
2017-08-21T05:43:25.219Z,1017.06
2017-08-21T05:45:18.433Z,1017.06
2017-08-21T05:46:18.867Z,1017.04
2017-08-21T05:47:19.301Z,1017.04
2017-08-21T05:48:19.741Z,1017.09
2017-08-21T05:49:20.166Z,1017.14
2017-08-21T05:50:20.609Z,1017.10
2017-08-21T05:52:14.810Z,1017.13
2017-08-21T05:53:15.253Z,1017.13
2017-08-21T05:54:15.683Z,1017.15
2017-08-21T05:55:16.109Z,1017.16
2017-08-21T05:56:16.543Z,1017.18
2017-08-21T05:57:16.975Z,1017.20
2017-08-21T05:58:17.416Z,1017.17
2017-08-21T06:00:10.623Z,1017.21
2017-08-21T06:01:11.068Z,1017.22
2017-08-21T06:02:11.499Z,1017.18
2017-08-21T06:03:11.933Z,1017.18
2017-08-21T06:04:12.371Z,1017.20
2017-08-21T06:05:12.803Z,1017.18
2017-08-21T06:07:06.011Z,1017.24
2017-08-21T06:08:06.444Z,1017.25
2017-08-21T06:09:06.878Z,1017.25
2017-08-21T06:10:07.315Z,1017.21
2017-08-21T06:11:07.746Z,1017.29
2017-08-21T06:12:08.180Z,1017.29
2017-08-21T06:14:01.391Z,1017.22
2017-08-21T06:15:01.836Z,1017.18
2017-08-21T06:16:02.266Z,1017.19
2017-08-21T06:17:02.701Z,1017.24
2017-08-21T06:18:03.133Z,1017.23
2017-08-21T06:19:03.569Z,1017.24
2017-08-21T06:20:04.007Z,1017.23
2017-08-21T06:21:04.441Z,1017.18
2017-08-21T06:22:57.667Z,1017.26
2017-08-21T06:23:58.097Z,1017.22
2017-08-21T06:25:52.288Z,1017.24
2017-08-21T06:26:52.735Z,1017.23
2017-08-21T06:27:53.169Z,1017.22
2017-08-21T06:28:53.602Z,1017.21
2017-08-21T06:30:46.817Z,1017.22
2017-08-21T06:31:47.267Z,1017.21
2017-08-21T06:32:47.690Z,1017.27
2017-08-21T06:33:48.134Z,1017.29
2017-08-21T06:34:48.557Z,1017.31
2017-08-21T06:35:49.010Z,1017.28
2017-08-21T06:37:43.186Z,1017.29
2017-08-21T06:39:36.418Z,1017.28
2017-08-21T06:40:36.859Z,1017.24
2017-08-21T06:41:37.293Z,1017.30
2017-08-21T06:42:37.717Z,1017.33
2017-08-21T06:43:38.166Z,1017.32
2017-08-21T06:44:38.588Z,1017.30
2017-08-21T06:46:31.797Z,1017.31
2017-08-21T06:47:32.241Z,1017.33
2017-08-21T06:48:32.677Z,1017.27
2017-08-21T06:49:33.108Z,1017.31
2017-08-21T06:51:26.321Z,1017.31
2017-08-21T06:52:26.764Z,1017.28
2017-08-21T06:53:27.197Z,1017.30
2017-08-21T06:54:27.632Z,1017.32
2017-08-21T06:55:28.071Z,1017.31
2017-08-21T06:57:21.272Z,1017.32
2017-08-21T06:59:14.491Z,1017.29
2017-08-21T07:00:14.954Z,1017.32
2017-08-21T07:01:15.363Z,1017.31
2017-08-21T07:02:15.803Z,1017.27
2017-08-21T07:03:16.234Z,1017.33
2017-08-21T07:04:16.669Z,1017.27
2017-08-21T07:06:09.885Z,1017.28
2017-08-21T07:07:10.329Z,1017.32
2017-08-21T07:08:10.762Z,1017.36
2017-08-21T07:09:39.143Z,1017.34
2017-08-21T07:12:19.667Z,1017.35
2017-08-21T07:13:08.165Z,1017.36
2017-08-21T07:14:05.738Z,1017.34
2017-08-21T07:15:58.940Z,1017.34
2017-08-21T07:16:59.385Z,1017.37
2017-08-21T07:17:59.817Z,1017.38
2017-08-21T07:19:00.255Z,1017.36
2017-08-21T07:20:00.700Z,1017.35
2017-08-21T07:21:01.127Z,1017.35
2017-08-21T07:22:54.345Z,1017.36
2017-08-21T07:23:54.814Z,1017.38
2017-08-21T07:24:55.256Z,1017.38
2017-08-21T07:28:40.450Z,1017.42
2017-08-21T07:29:44.430Z,1017.39
2017-08-21T07:30:44.943Z,1017.42
2017-08-21T07:31:30.497Z,1017.40
2017-08-21T07:33:23.725Z,1017.39
2017-08-21T07:34:24.169Z,1017.42
2017-08-21T07:36:17.399Z,1017.38
2017-08-21T07:37:17.838Z,1017.35
2017-08-21T07:38:18.273Z,1017.37
2017-08-21T07:39:18.718Z,1017.35
2017-08-21T07:40:19.149Z,1017.35
2017-08-21T07:41:19.586Z,1017.42
2017-08-21T07:43:12.802Z,1017.39
2017-08-21T07:44:13.249Z,1017.46
2017-08-21T07:45:13.680Z,1017.42
2017-08-21T07:46:14.118Z,1017.43
2017-08-21T07:48:07.440Z,1017.44
2017-08-21T07:49:07.775Z,1017.47
2017-08-21T07:50:08.226Z,1017.47
2017-08-21T07:52:01.433Z,1017.44
2017-08-21T07:53:01.876Z,1017.45
2017-08-21T07:54:02.312Z,1017.45
2017-08-21T07:55:02.747Z,1017.47
2017-08-21T07:56:03.182Z,1017.44
2017-08-21T07:57:56.413Z,1017.35
2017-08-21T07:58:56.845Z,1017.35
2017-08-21T07:59:57.282Z,1017.32
2017-08-21T08:00:57.724Z,1017.29
2017-08-21T08:02:51.955Z,1017.35
2017-08-21T08:03:52.378Z,1017.33
2017-08-21T08:04:52.824Z,1017.27
2017-08-21T08:05:53.256Z,1017.35
2017-08-21T08:07:47.509Z,1017.29
2017-08-21T08:08:47.918Z,1017.28
2017-08-21T08:09:48.374Z,1017.30
2017-08-21T08:11:41.594Z,1017.32
2017-08-21T08:12:42.041Z,1017.32
2017-08-21T08:13:42.485Z,1017.33
2017-08-21T08:15:36.690Z,1017.37
2017-08-21T08:17:29.918Z,1017.41
2017-08-21T08:18:30.367Z,1017.39
2017-08-21T08:19:30.812Z,1017.36
2017-08-21T08:20:31.247Z,1017.37
2017-08-21T08:21:31.689Z,1017.40
2017-08-21T08:23:24.933Z,1017.40
2017-08-21T08:24:25.381Z,1017.36
2017-08-21T08:25:25.819Z,1017.37
2017-08-21T08:27:19.114Z,1017.30
2017-08-21T08:28:19.562Z,1017.34
2017-08-21T08:29:20.003Z,1017.37
2017-08-21T08:30:20.446Z,1017.34
2017-08-21T08:32:13.673Z,1017.33
2017-08-21T08:33:14.131Z,1017.36
2017-08-21T08:34:14.565Z,1017.39
2017-08-21T08:36:07.786Z,1017.35
2017-08-21T08:37:08.226Z,1017.38
2017-08-21T08:38:08.666Z,1017.34
2017-08-21T08:39:09.100Z,1017.40
2017-08-21T08:41:02.332Z,1017.32
2017-08-21T08:42:02.775Z,1017.33
2017-08-21T08:43:03.230Z,1017.33
2017-08-21T08:44:03.652Z,1017.33
2017-08-21T08:45:04.110Z,1017.38
2017-08-21T08:46:57.316Z,1017.27
2017-08-21T08:47:57.761Z,1017.40
2017-08-21T08:48:58.203Z,1017.33
2017-08-21T08:49:58.636Z,1017.31
2017-08-21T08:50:59.113Z,1017.31
2017-08-21T08:53:00.070Z,1017.29
2017-08-21T08:53:52.768Z,1017.28
2017-08-21T08:55:45.989Z,1017.25
2017-08-21T08:57:39.231Z,1017.32
2017-08-21T08:58:39.680Z,1017.33
2017-08-21T09:01:14.243Z,1017.30
2017-08-21T09:03:07.495Z,1017.31
2017-08-21T09:04:07.941Z,1017.29
2017-08-21T09:05:08.384Z,1017.32
2017-08-21T09:06:08.827Z,1017.35
2017-08-21T09:07:09.270Z,1017.32
2017-08-21T09:08:09.712Z,1017.33
2017-08-21T09:09:10.170Z,1017.36
2017-08-21T09:10:10.601Z,1017.32
2017-08-21T09:11:11.046Z,1017.33
2017-08-21T09:12:11.495Z,1017.27
2017-08-21T09:13:11.935Z,1017.35
2017-08-21T09:14:12.376Z,1017.31
2017-08-21T09:15:12.824Z,1017.29
2017-08-21T09:16:13.267Z,1017.28
2017-08-21T09:18:06.499Z,1017.30
2017-08-21T09:19:06.937Z,1017.33
2017-08-21T09:20:07.390Z,1017.30
2017-08-21T09:21:07.838Z,1017.29
2017-08-21T09:23:01.072Z,1017.25
2017-08-21T09:24:01.528Z,1017.18
2017-08-21T09:25:01.984Z,1017.21
2017-08-21T09:26:02.422Z,1017.18
2017-08-21T09:27:02.868Z,1017.23
2017-08-21T09:28:03.314Z,1017.23
2017-08-21T09:29:03.763Z,1017.32
2017-08-21T09:30:04.217Z,1017.29
2017-08-21T09:31:57.457Z,1017.29
2017-08-21T09:32:57.901Z,1017.22
2017-08-21T09:33:58.345Z,1017.26
2017-08-21T09:34:58.794Z,1017.23
2017-08-21T09:36:52.030Z,1017.16
2017-08-21T09:37:52.484Z,1017.21
2017-08-21T09:38:52.928Z,1017.18
2017-08-21T09:39:53.379Z,1017.24
2017-08-21T09:40:53.823Z,1017.21
2017-08-21T09:42:47.073Z,1017.29
2017-08-21T09:44:40.305Z,1017.21
2017-08-21T09:45:40.755Z,1017.25
2017-08-21T09:46:41.197Z,1017.24
2017-08-21T09:47:41.646Z,1017.21
2017-08-21T09:48:42.084Z,1017.23
2017-08-21T09:49:42.530Z,1017.25
2017-08-21T09:50:42.971Z,1017.25
2017-08-21T09:52:36.197Z,1017.21
2017-08-21T09:53:36.646Z,1017.14
2017-08-21T09:54:37.080Z,1017.09
2017-08-21T09:55:37.532Z,1017.12
2017-08-21T09:56:37.967Z,1017.13
2017-08-21T09:57:38.413Z,1017.15
2017-08-21T09:58:38.857Z,1017.09
2017-08-21T09:59:39.351Z,1017.11
2017-08-21T10:01:33.526Z,1017.03
2017-08-21T10:03:27.761Z,1017.09
2017-08-21T10:04:28.222Z,1017.08
2017-08-21T10:05:28.659Z,1017.05
2017-08-21T10:06:29.114Z,1017.05
2017-08-21T10:08:23.212Z,1017.10
2017-08-21T10:09:22.810Z,1017.14
2017-08-21T10:10:23.270Z,1017.08
2017-08-21T10:11:23.714Z,1017.14
2017-08-21T10:12:24.156Z,1017.08
2017-08-21T10:13:24.599Z,1017.09
2017-08-21T10:14:25.076Z,1017.04
2017-08-21T10:16:36.538Z,1017.09
2017-08-21T10:19:52.285Z,1017.04
2017-08-21T10:20:52.741Z,1017.08
2017-08-21T10:22:56.726Z,1017.08
2017-08-21T10:23:46.414Z,1017.13
2017-08-21T10:24:46.863Z,1017.06
2017-08-21T10:25:47.295Z,1017.11
2017-08-21T10:27:44.505Z,1017.10
2017-08-21T10:28:44.928Z,1017.13
2017-08-21T10:29:45.371Z,1017.11
2017-08-21T10:30:45.832Z,1017.12
2017-08-21T10:34:44.387Z,1017.00
2017-08-21T10:36:08.144Z,1017.00
2017-08-21T10:39:14.720Z,1016.88
2017-08-21T10:40:47.712Z,1016.87
2017-08-21T10:42:34.127Z,1016.92
2017-08-21T10:43:34.545Z,1016.88
2017-08-21T10:44:35.008Z,1016.97
2017-08-21T10:45:35.466Z,1016.96
2017-08-21T10:46:35.903Z,1016.91
2017-08-21T10:48:29.152Z,1016.90
2017-08-21T10:49:29.608Z,1016.96
2017-08-21T10:51:22.853Z,1016.92
2017-08-21T10:52:23.303Z,1016.96
2017-08-21T10:53:23.741Z,1016.97
2017-08-21T10:54:24.185Z,1016.94
2017-08-21T10:55:24.629Z,1016.95
2017-08-21T10:56:25.070Z,1016.83
2017-08-21T10:57:25.516Z,1016.88
2017-08-21T10:58:32.652Z,1016.86
2017-08-21T11:00:30.463Z,1016.85
2017-08-21T11:02:12.486Z,1016.76
2017-08-21T11:04:05.737Z,1016.77
2017-08-21T11:05:06.197Z,1016.73
2017-08-21T11:06:11.486Z,1016.73
2017-08-21T11:07:07.120Z,1016.89
2017-08-21T11:10:33.490Z,1016.92
2017-08-21T11:12:09.733Z,1016.85
2017-08-21T11:12:49.252Z,1016.83
2017-08-21T11:17:34.434Z,1016.93
2017-08-21T11:19:35.433Z,1016.87
2017-08-21T11:21:21.926Z,1016.86
2017-08-21T11:22:22.403Z,1016.85
2017-08-21T11:34:55.822Z,1016.42
2017-08-21T11:35:16.987Z,1016.47
2017-08-21T11:36:17.441Z,1016.47
2017-08-21T11:37:20.786Z,1016.52
2017-08-21T11:39:52.475Z,1016.51
2017-08-21T11:46:13.029Z,1016.44
2017-08-21T11:52:07.924Z,1016.46
2017-08-21T11:53:15.190Z,1016.52
2017-08-21T11:54:15.694Z,1016.53
2017-08-21T11:55:09.276Z,1016.46
2017-08-21T11:58:19.111Z,1016.49
2017-08-21T11:58:59.093Z,1016.53
2017-08-21T11:59:44.739Z,1016.48
2017-08-21T12:01:38.972Z,1016.48
2017-08-21T12:02:54.226Z,1016.39
2017-08-21T12:05:48.235Z,1016.40
2017-08-21T12:06:13.442Z,1016.47
2017-08-21T12:08:06.673Z,1016.46
2017-08-21T12:09:07.118Z,1016.38
2017-08-21T12:10:22.438Z,1016.44
2017-08-21T12:11:35.929Z,1016.39
2017-08-21T12:13:01.266Z,1016.39
2017-08-21T12:14:01.696Z,1016.30
2017-08-21T12:15:02.307Z,1016.39
2017-08-21T12:17:35.701Z,1016.33
2017-08-21T12:18:36.159Z,1016.34
2017-08-21T12:19:36.596Z,1016.35
2017-08-21T12:20:37.039Z,1016.36
2017-08-21T12:21:37.482Z,1016.35
2017-08-21T12:23:30.722Z,1016.29
2017-08-21T12:24:31.181Z,1016.37
2017-08-21T12:25:31.622Z,1016.28
2017-08-21T12:27:25.841Z,1016.42
2017-08-21T12:29:59.477Z,1016.44
2017-08-21T12:32:38.749Z,1016.34
2017-08-21T12:36:07.094Z,1016.34
2017-08-21T12:36:59.789Z,1016.37
2017-08-21T12:38:00.244Z,1016.39
2017-08-21T12:39:53.475Z,1016.37
2017-08-21T12:40:53.910Z,1016.31
2017-08-21T12:41:54.349Z,1016.38
2017-08-21T12:43:47.579Z,1016.34
2017-08-21T12:44:48.034Z,1016.32
2017-08-21T12:45:48.470Z,1016.30
2017-08-21T12:49:51.547Z,1016.26
2017-08-21T12:50:47.044Z,1016.24
2017-08-21T12:51:15.684Z,1016.29
2017-08-21T12:52:16.123Z,1016.32
2017-08-21T12:53:19.557Z,1016.26
2017-08-21T12:55:17.599Z,1016.24
2017-08-21T12:56:10.239Z,1016.28
2017-08-21T12:57:31.854Z,1016.19
2017-08-21T12:59:45.210Z,1016.24
2017-08-21T13:00:45.678Z,1016.24
2017-08-21T13:02:04.003Z,1016.28
2017-08-21T13:02:46.543Z,1016.32
2017-08-21T13:03:46.991Z,1016.26
2017-08-21T13:07:16.572Z,1016.27
2017-08-21T13:09:14.200Z,1016.27
2017-08-21T13:11:38.695Z,1016.20
2017-08-21T13:12:14.700Z,1016.21
2017-08-21T13:15:07.702Z,1016.17
2017-08-21T13:15:41.903Z,1016.27
2017-08-21T13:16:42.342Z,1016.22
2017-08-21T13:17:42.780Z,1016.12
2017-08-21T13:18:43.240Z,1016.23
2017-08-21T13:19:43.663Z,1016.09
2017-08-21T13:20:50.691Z,1016.14
2017-08-21T13:22:05.710Z,1016.14
2017-08-21T13:22:45.050Z,1016.07
2017-08-21T13:23:45.458Z,1016.08
2017-08-21T13:27:26.016Z,1016.15
2017-08-21T13:28:12.238Z,1016.06
2017-08-21T13:29:15.514Z,1016.07
2017-08-21T13:31:08.652Z,1016.00
2017-08-21T13:32:59.423Z,1016.12
2017-08-21T13:33:59.579Z,1015.94
2017-08-21T13:35:00.036Z,1016.12
2017-08-21T13:36:00.496Z,1016.10
2017-08-21T13:39:38.058Z,1016.02
2017-08-21T13:40:27.242Z,1016.00
2017-08-21T13:41:27.685Z,1016.01
2017-08-21T13:43:20.902Z,1015.99
2017-08-21T13:44:21.353Z,1015.94
2017-08-21T13:45:21.821Z,1015.96
2017-08-21T13:46:25.160Z,1015.94
2017-08-21T13:47:22.676Z,1016.00
2017-08-21T13:48:23.120Z,1015.93
2017-08-21T13:49:23.601Z,1016.02
2017-08-21T13:50:24.002Z,1015.99
2017-08-21T13:51:24.449Z,1016.02
2017-08-21T13:53:35.942Z,1015.94
2017-08-21T13:54:18.149Z,1015.98
2017-08-21T13:56:11.368Z,1016.04
2017-08-21T13:57:11.816Z,1016.02
2017-08-21T13:58:12.280Z,1015.92
2017-08-21T13:59:12.717Z,1015.93
2017-08-21T14:01:05.949Z,1015.99
2017-08-21T14:02:09.412Z,1015.97
2017-08-21T14:03:06.830Z,1015.94
2017-08-21T14:04:31.183Z,1015.99
2017-08-21T14:06:14.794Z,1015.99
2017-08-21T14:07:01.030Z,1016.02
2017-08-21T14:08:01.415Z,1016.00
2017-08-21T14:11:27.892Z,1016.11
2017-08-21T14:14:03.214Z,1016.13
2017-08-21T14:15:12.701Z,1016.15
2017-08-21T14:18:29.307Z,1016.37
2017-08-21T14:20:23.491Z,1016.50
2017-08-21T14:21:23.944Z,1016.58
2017-08-21T14:22:24.385Z,1016.52
2017-08-21T14:23:24.824Z,1016.67
2017-08-21T14:25:18.064Z,1016.60
2017-08-21T14:26:18.500Z,1016.54
2017-08-21T14:28:52.077Z,1016.51
2017-08-21T14:31:03.584Z,1016.39
2017-08-21T14:33:11.292Z,1016.39
2017-08-21T14:34:03.768Z,1016.36
2017-08-21T14:35:40.817Z,1016.35
2017-08-21T14:37:05.279Z,1016.40
2017-08-21T14:38:34.527Z,1016.40
2017-08-21T14:39:34.970Z,1016.41
2017-08-21T14:40:35.419Z,1016.40
2017-08-21T14:42:28.647Z,1016.42
2017-08-21T14:46:33.725Z,1016.48
2017-08-21T14:47:16.588Z,1016.49
2017-08-21T14:47:58.711Z,1016.50
2017-08-21T14:50:50.577Z,1016.42
2017-08-21T14:51:51.031Z,1016.47
2017-08-21T14:52:30.304Z,1016.47
2017-08-21T14:55:03.864Z,1016.47
2017-08-21T14:56:04.323Z,1016.46
2017-08-21T14:57:15.609Z,1016.38
2017-08-21T15:00:38.343Z,1016.33
2017-08-21T15:01:33.496Z,1016.32
2017-08-21T15:02:55.097Z,1016.30
2017-08-21T15:03:34.376Z,1016.27
2017-08-21T15:04:35.861Z,1016.29
2017-08-21T15:07:08.359Z,1016.34
2017-08-21T15:08:08.812Z,1016.33
2017-08-21T15:09:09.245Z,1016.30
2017-08-21T15:10:09.685Z,1016.38
2017-08-21T15:11:10.134Z,1016.37
2017-08-21T15:13:03.375Z,1016.34
2017-08-21T15:14:03.831Z,1016.27
2017-08-21T15:15:19.110Z,1016.35
2017-08-21T15:16:58.452Z,1016.29
2017-08-21T15:18:51.696Z,1016.32
2017-08-21T15:19:52.143Z,1016.31
2017-08-21T15:20:52.589Z,1016.31
2017-08-21T15:22:45.816Z,1016.35
2017-08-21T15:23:46.264Z,1016.35
2017-08-21T15:25:01.561Z,1016.34
2017-08-21T15:26:39.938Z,1016.31
2017-08-21T15:27:40.392Z,1016.28
2017-08-21T15:29:33.620Z,1016.31
2017-08-21T15:30:34.062Z,1016.33
2017-08-21T15:38:22.196Z,1016.28
2017-08-21T15:40:20.575Z,1016.20
2017-08-21T15:41:35.716Z,1016.20
2017-08-21T15:42:21.372Z,1016.28
2017-08-21T15:52:44.500Z,1016.29
2017-08-21T15:57:46.312Z,1016.30
2017-08-21T15:58:46.593Z,1016.28
2017-08-21T15:59:47.042Z,1016.30
2017-08-21T16:00:50.076Z,1016.33
2017-08-21T16:01:47.952Z,1016.37
2017-08-21T16:02:48.276Z,1016.40
2017-08-21T16:04:41.579Z,1016.47
2017-08-21T16:06:39.159Z,1016.39
2017-08-21T16:07:39.716Z,1016.45
2017-08-21T16:08:39.881Z,1016.36
2017-08-21T16:09:40.351Z,1016.41
2017-08-21T16:10:40.735Z,1016.45
2017-08-21T16:12:34.188Z,1016.38
2017-08-21T16:14:10.336Z,1016.42
2017-08-21T16:15:35.334Z,1016.46